CES5752 ZSJN-ZPPP
Flight info
| Callsign | CES5752 |
|---|---|
| Flight time | 2h 30m |
| Altitude | 32100 |
| Route | EXUVU W4 LIMGI W152 TAREX W278 AVDIG W666 INVOG W30 MEBNA |
| Aircraft | A359/H-SDE2E3GHIJ3J4J5LM1ORWXY/LB1D1 |
Departure
| Time | 2026-04-26 11:08 |
|---|---|
| Airport | Jinan Yaoqiang International Airport (ZSJN) |
Arrival
| Time | 2026-04-26 13:39 |
|---|---|
| Airport | Kunming Changshui International Airport (ZPPP) |
| Time | Latitude | Longitude | Altitude | Speed | Heading |
|---|---|---|---|---|---|
| 2026-04-26 10:57 | 36.84727 | 117.21162 | 84 ft | 0 kts | 270° |
| 2026-04-26 11:02 | 36.84727 | 117.21179 | 89 ft | 4 kts | 270° |
| 2026-04-26 11:02 | 36.84727 | 117.21213 | 90 ft | 4 kts | 270° |
| 2026-04-26 11:03 | 36.84727 | 117.21230 | 88 ft | 4 kts | 270° |
| 2026-04-26 11:05 | 36.84724 | 117.21224 | 89 ft | 2 kts | 252° |
| 2026-04-26 11:05 | 36.84708 | 117.21221 | 88 ft | 2 kts | 167° |
| 2026-04-26 11:05 | 36.84639 | 117.21259 | 92 ft | 18 kts | 163° |
| 2026-04-26 11:06 | 36.84521 | 117.21351 | 92 ft | 20 kts | 145° |
| 2026-04-26 11:06 | 36.84390 | 117.21370 | 90 ft | 20 kts | 180° |
| 2026-04-26 11:06 | 36.84245 | 117.21373 | 92 ft | 22 kts | 179° |
| 2026-04-26 11:06 | 36.84157 | 117.21378 | 90 ft | 7 kts | 163° |
| 2026-04-26 11:07 | 36.84123 | 117.21433 | 92 ft | 10 kts | 107° |
| 2026-04-26 11:07 | 36.84118 | 117.21522 | 93 ft | 12 kts | 85° |
| 2026-04-26 11:07 | 36.84172 | 117.21593 | 95 ft | 12 kts | 11° |
| 2026-04-26 11:07 | 36.84305 | 117.21595 | 95 ft | 39 kts | 360° |
| 2026-04-26 11:08 | 36.84834 | 117.21595 | 91 ft | 111 kts | 360° |
| 2026-04-26 11:08 | 36.85815 | 117.21597 | 154 ft | 164 kts | 0° |
| 2026-04-26 11:08 | 36.86932 | 117.21603 | 905 ft | 159 kts | 359° |
| 2026-04-26 11:08 | 36.88086 | 117.21620 | 1527 ft | 171 kts | 359° |
| 2026-04-26 11:09 | 36.89345 | 117.21616 | 1946 ft | 194 kts | 358° |
| 2026-04-26 11:09 | 36.90785 | 117.21597 | 2323 ft | 222 kts | 358° |
| 2026-04-26 11:09 | 36.92438 | 117.21592 | 2676 ft | 253 kts | 359° |
| 2026-04-26 11:09 | 36.94278 | 117.21597 | 3199 ft | 273 kts | 358° |
| 2026-04-26 11:10 | 36.96222 | 117.21598 | 3926 ft | 282 kts | 358° |
| 2026-04-26 11:10 | 36.98200 | 117.21606 | 4791 ft | 285 kts | 359° |
| 2026-04-26 11:10 | 37.00191 | 117.21611 | 5717 ft | 286 kts | 358° |
| 2026-04-26 11:10 | 37.02179 | 117.21607 | 6690 ft | 286 kts | 358° |
| 2026-04-26 11:11 | 37.04165 | 117.21605 | 7679 ft | 286 kts | 358° |
| 2026-04-26 11:11 | 37.06157 | 117.21604 | 8669 ft | 287 kts | 358° |
| 2026-04-26 11:11 | 37.08154 | 117.21510 | 9691 ft | 286 kts | 350° |
| 2026-04-26 11:11 | 37.10037 | 117.20754 | 10515 ft | 289 kts | 329° |
| 2026-04-26 11:12 | 37.11584 | 117.19059 | 10954 ft | 307 kts | 304° |
| 2026-04-26 11:12 | 37.12429 | 117.16540 | 11350 ft | 326 kts | 279° |
| 2026-04-26 11:12 | 37.12310 | 117.13709 | 11997 ft | 337 kts | 258° |
| 2026-04-26 11:12 | 37.11939 | 117.10791 | 12704 ft | 342 kts | 269° |
| 2026-04-26 11:13 | 37.11908 | 117.07787 | 13517 ft | 347 kts | 271° |
| 2026-04-26 11:13 | 37.11902 | 117.04745 | 14292 ft | 351 kts | 271° |
| 2026-04-26 11:13 | 37.12032 | 117.01673 | 15040 ft | 355 kts | 276° |
| 2026-04-26 11:13 | 37.12280 | 116.98586 | 15799 ft | 358 kts | 277° |
| 2026-04-26 11:14 | 37.12543 | 116.95465 | 16559 ft | 362 kts | 277° |
| 2026-04-26 11:14 | 37.12807 | 116.92306 | 17313 ft | 366 kts | 277° |
| 2026-04-26 11:14 | 37.13069 | 116.89127 | 18088 ft | 369 kts | 277° |
| 2026-04-26 11:14 | 37.13334 | 116.85901 | 18781 ft | 372 kts | 277° |
| 2026-04-26 11:15 | 37.13460 | 116.82649 | 19479 ft | 377 kts | 269° |
| 2026-04-26 11:15 | 37.12983 | 116.79394 | 20203 ft | 385 kts | 254° |
| 2026-04-26 11:15 | 37.11994 | 116.76247 | 20930 ft | 390 kts | 250° |
| 2026-04-26 11:15 | 37.10910 | 116.73117 | 21635 ft | 393 kts | 250° |
| 2026-04-26 11:16 | 37.09819 | 116.69959 | 22340 ft | 397 kts | 250° |
| 2026-04-26 11:16 | 37.08723 | 116.66769 | 23031 ft | 401 kts | 251° |
| 2026-04-26 11:16 | 37.07634 | 116.63587 | 23674 ft | 404 kts | 251° |
| 2026-04-26 11:16 | 37.06524 | 116.60340 | 24256 ft | 407 kts | 251° |
| 2026-04-26 11:17 | 37.05407 | 116.57070 | 24835 ft | 410 kts | 251° |
| 2026-04-26 11:17 | 37.04281 | 116.53773 | 25395 ft | 413 kts | 251° |
| 2026-04-26 11:17 | 37.03145 | 116.50449 | 25999 ft | 416 kts | 252° |
| 2026-04-26 11:17 | 37.02004 | 116.47113 | 26573 ft | 419 kts | 252° |
| 2026-04-26 11:18 | 37.00852 | 116.43746 | 27126 ft | 422 kts | 252° |
| 2026-04-26 11:18 | 36.99689 | 116.40355 | 27713 ft | 425 kts | 252° |
| 2026-04-26 11:18 | 36.98520 | 116.36947 | 28278 ft | 428 kts | 252° |
| 2026-04-26 11:18 | 36.97339 | 116.33509 | 28840 ft | 431 kts | 252° |
| 2026-04-26 11:19 | 36.96149 | 116.30050 | 29346 ft | 434 kts | 252° |
| 2026-04-26 11:19 | 36.94953 | 116.26576 | 29851 ft | 437 kts | 252° |
| 2026-04-26 11:19 | 36.93746 | 116.23074 | 30331 ft | 440 kts | 253° |
| 2026-04-26 11:19 | 36.92529 | 116.19550 | 30760 ft | 442 kts | 253° |
| 2026-04-26 11:20 | 36.91323 | 116.16058 | 31169 ft | 445 kts | 253° |
| 2026-04-26 11:20 | 36.90491 | 116.13653 | 31444 ft | 447 kts | 253° |
| 2026-04-26 11:20 | 36.88853 | 116.08922 | 31902 ft | 450 kts | 253° |
| 2026-04-26 11:20 | 36.87610 | 116.05346 | 31985 ft | 443 kts | 253° |
| 2026-04-26 11:21 | 36.85185 | 115.98380 | 31990 ft | 435 kts | 253° |
| 2026-04-26 11:21 | 36.82778 | 115.91459 | 31989 ft | 434 kts | 253° |
| 2026-04-26 11:22 | 36.80368 | 115.84547 | 31990 ft | 434 kts | 253° |
| 2026-04-26 11:22 | 36.77953 | 115.77644 | 31989 ft | 434 kts | 253° |
| 2026-04-26 11:23 | 36.75533 | 115.70747 | 31989 ft | 434 kts | 253° |
| 2026-04-26 11:23 | 36.73114 | 115.63869 | 31988 ft | 433 kts | 253° |
| 2026-04-26 11:24 | 36.70687 | 115.56988 | 31990 ft | 433 kts | 253° |
| 2026-04-26 11:24 | 36.68274 | 115.50163 | 31992 ft | 432 kts | 253° |
| 2026-04-26 11:25 | 36.65845 | 115.43306 | 31986 ft | 432 kts | 253° |
| 2026-04-26 11:25 | 36.63415 | 115.36462 | 31979 ft | 432 kts | 253° |
| 2026-04-26 11:26 | 36.60980 | 115.29619 | 31989 ft | 432 kts | 253° |
| 2026-04-26 11:26 | 36.58548 | 115.22794 | 31990 ft | 431 kts | 253° |
| 2026-04-26 11:27 | 36.55937 | 115.16046 | 31997 ft | 438 kts | 246° |
| 2026-04-26 11:27 | 36.52016 | 115.10105 | 31996 ft | 451 kts | 233° |
| 2026-04-26 11:28 | 36.47481 | 115.04667 | 31986 ft | 454 kts | 231° |
| 2026-04-26 11:28 | 36.42891 | 114.99340 | 31991 ft | 454 kts | 231° |
| 2026-04-26 11:29 | 36.38300 | 114.93961 | 31991 ft | 452 kts | 233° |
| 2026-04-26 11:29 | 36.34562 | 114.87914 | 31992 ft | 437 kts | 245° |
| 2026-04-26 11:30 | 36.31959 | 114.82560 | 31994 ft | 435 kts | 247° |
| 2026-04-26 11:30 | 36.28411 | 114.74969 | 31999 ft | 434 kts | 247° |
| 2026-04-26 11:31 | 36.25341 | 114.68513 | 31997 ft | 435 kts | 246° |
| 2026-04-26 11:31 | 36.22198 | 114.62109 | 32000 ft | 435 kts | 246° |
| 2026-04-26 11:32 | 36.19045 | 114.55713 | 32000 ft | 435 kts | 246° |
| 2026-04-26 11:32 | 36.15902 | 114.49326 | 32003 ft | 434 kts | 246° |
| 2026-04-26 11:33 | 36.12781 | 114.42983 | 32001 ft | 434 kts | 246° |
| 2026-04-26 11:33 | 36.09645 | 114.36617 | 32007 ft | 433 kts | 246° |
| 2026-04-26 11:34 | 36.06501 | 114.30250 | 32011 ft | 433 kts | 246° |
| 2026-04-26 11:34 | 36.03871 | 114.24931 | 32010 ft | 433 kts | 246° |
| 2026-04-26 11:35 | 36.00732 | 114.18594 | 32014 ft | 433 kts | 246° |
| 2026-04-26 11:35 | 35.97586 | 114.12257 | 32021 ft | 432 kts | 246° |
| 2026-04-26 11:36 | 35.94461 | 114.05974 | 32020 ft | 433 kts | 246° |
| 2026-04-26 11:36 | 35.91308 | 113.99644 | 32025 ft | 432 kts | 246° |
| 2026-04-26 11:37 | 35.88159 | 113.93334 | 32026 ft | 432 kts | 246° |
| 2026-04-26 11:37 | 35.85003 | 113.87022 | 32032 ft | 432 kts | 246° |
| 2026-04-26 11:38 | 35.81851 | 113.80728 | 32034 ft | 432 kts | 245° |
| 2026-04-26 11:38 | 35.78694 | 113.74440 | 32035 ft | 431 kts | 245° |
| 2026-04-26 11:39 | 35.75538 | 113.68167 | 32037 ft | 431 kts | 245° |
| 2026-04-26 11:39 | 35.72383 | 113.61900 | 32043 ft | 430 kts | 245° |
| 2026-04-26 11:40 | 35.69226 | 113.55645 | 32046 ft | 431 kts | 245° |
| 2026-04-26 11:40 | 35.66060 | 113.49386 | 32043 ft | 430 kts | 245° |
| 2026-04-26 11:42 | 35.53595 | 113.24380 | 32031 ft | 428 kts | 246° |
| 2026-04-26 11:43 | 35.50487 | 113.18047 | 32030 ft | 442 kts | 246° |
| 2026-04-26 11:43 | 35.48878 | 113.14772 | 32041 ft | 454 kts | 246° |
| 2026-04-26 11:43 | 35.47231 | 113.11427 | 32029 ft | 464 kts | 245° |
| 2026-04-26 11:44 | 35.43815 | 113.04535 | 32020 ft | 479 kts | 245° |
| 2026-04-26 11:44 | 35.40332 | 112.97562 | 32014 ft | 479 kts | 245° |
| 2026-04-26 11:45 | 35.36849 | 112.90590 | 32013 ft | 480 kts | 245° |
| 2026-04-26 11:45 | 35.33367 | 112.83616 | 32006 ft | 480 kts | 245° |
| 2026-04-26 11:46 | 35.29880 | 112.76641 | 32004 ft | 480 kts | 245° |
| 2026-04-26 11:46 | 35.26411 | 112.69715 | 32001 ft | 480 kts | 245° |
| 2026-04-26 11:47 | 35.22919 | 112.62760 | 32001 ft | 480 kts | 245° |
| 2026-04-26 11:47 | 35.19424 | 112.55813 | 31991 ft | 479 kts | 245° |
| 2026-04-26 11:48 | 35.15967 | 112.48855 | 31992 ft | 479 kts | 245° |
| 2026-04-26 11:48 | 35.12523 | 112.41878 | 31994 ft | 479 kts | 245° |
| 2026-04-26 11:49 | 35.09071 | 112.34919 | 31989 ft | 480 kts | 245° |
| 2026-04-26 11:49 | 35.05607 | 112.27968 | 31984 ft | 479 kts | 244° |
| 2026-04-26 11:50 | 35.02139 | 112.21024 | 31981 ft | 479 kts | 244° |
| 2026-04-26 11:50 | 34.98671 | 112.14093 | 31976 ft | 479 kts | 244° |
| 2026-04-26 11:51 | 34.95199 | 112.07168 | 31969 ft | 478 kts | 244° |
| 2026-04-26 11:51 | 34.91724 | 112.00256 | 31974 ft | 478 kts | 244° |
| 2026-04-26 11:52 | 34.88249 | 111.93361 | 31975 ft | 477 kts | 244° |
| 2026-04-26 11:52 | 34.84784 | 111.86470 | 31965 ft | 477 kts | 244° |
| 2026-04-26 11:53 | 34.81351 | 111.79546 | 31941 ft | 476 kts | 245° |
| 2026-04-26 11:54 | 34.76265 | 111.69315 | 31958 ft | 472 kts | 244° |
| 2026-04-26 11:54 | 34.72857 | 111.62493 | 31955 ft | 472 kts | 244° |
| 2026-04-26 11:55 | 34.69442 | 111.55674 | 31956 ft | 472 kts | 244° |
| 2026-04-26 11:55 | 34.66013 | 111.48842 | 31952 ft | 473 kts | 244° |
| 2026-04-26 11:56 | 34.62585 | 111.42027 | 31953 ft | 473 kts | 244° |
| 2026-04-26 11:56 | 34.59147 | 111.35211 | 31948 ft | 473 kts | 244° |
| 2026-04-26 11:57 | 34.55714 | 111.28403 | 31952 ft | 474 kts | 244° |
| 2026-04-26 11:57 | 34.52265 | 111.21585 | 31956 ft | 473 kts | 243° |
| 2026-04-26 11:58 | 34.48817 | 111.14790 | 31955 ft | 473 kts | 243° |
| 2026-04-26 11:58 | 34.45365 | 111.07990 | 31959 ft | 474 kts | 243° |
| 2026-04-26 11:59 | 34.41932 | 111.01240 | 31955 ft | 474 kts | 243° |
| 2026-04-26 11:59 | 34.38498 | 110.94387 | 31958 ft | 472 kts | 243° |
| 2026-04-26 12:00 | 34.35131 | 110.87623 | 31960 ft | 473 kts | 243° |
| 2026-04-26 12:00 | 34.31725 | 110.80809 | 31963 ft | 473 kts | 243° |
| 2026-04-26 12:01 | 34.28305 | 110.73998 | 31965 ft | 474 kts | 243° |
| 2026-04-26 12:01 | 34.24880 | 110.67193 | 31963 ft | 474 kts | 243° |
| 2026-04-26 12:02 | 34.21441 | 110.60380 | 31972 ft | 474 kts | 243° |
| 2026-04-26 12:02 | 34.17997 | 110.53569 | 31971 ft | 474 kts | 243° |
| 2026-04-26 12:03 | 34.14555 | 110.46764 | 31975 ft | 475 kts | 243° |
| 2026-04-26 12:03 | 34.11112 | 110.39958 | 31973 ft | 475 kts | 243° |
| 2026-04-26 12:04 | 34.07687 | 110.33123 | 31974 ft | 475 kts | 243° |
| 2026-04-26 12:04 | 34.04279 | 110.26334 | 31970 ft | 476 kts | 243° |
| 2026-04-26 12:05 | 34.00843 | 110.19508 | 31982 ft | 476 kts | 243° |
| 2026-04-26 12:05 | 33.97400 | 110.12687 | 31973 ft | 477 kts | 243° |
| 2026-04-26 12:06 | 33.93954 | 110.05883 | 31971 ft | 476 kts | 243° |
| 2026-04-26 12:06 | 33.90497 | 109.99074 | 31970 ft | 476 kts | 243° |
| 2026-04-26 12:07 | 33.86807 | 109.92440 | 31968 ft | 481 kts | 236° |
| 2026-04-26 12:07 | 33.82539 | 109.86288 | 31970 ft | 482 kts | 233° |
| 2026-04-26 12:08 | 33.78114 | 109.80219 | 31975 ft | 482 kts | 233° |
| 2026-04-26 12:08 | 33.73698 | 109.74149 | 31971 ft | 482 kts | 233° |
| 2026-04-26 12:09 | 33.69295 | 109.68062 | 31970 ft | 482 kts | 233° |
| 2026-04-26 12:09 | 33.64901 | 109.61971 | 31973 ft | 483 kts | 233° |
| 2026-04-26 12:10 | 33.60498 | 109.55878 | 31972 ft | 483 kts | 233° |
| 2026-04-26 12:10 | 33.56085 | 109.49791 | 31980 ft | 483 kts | 233° |
| 2026-04-26 12:11 | 33.51685 | 109.43730 | 31977 ft | 482 kts | 233° |
| 2026-04-26 12:11 | 33.47267 | 109.37658 | 31973 ft | 483 kts | 233° |
| 2026-04-26 12:12 | 33.42851 | 109.31584 | 31974 ft | 483 kts | 233° |
| 2026-04-26 12:12 | 33.38461 | 109.25563 | 31976 ft | 483 kts | 233° |
| 2026-04-26 12:13 | 33.34043 | 109.19517 | 31965 ft | 483 kts | 233° |
| 2026-04-26 12:13 | 33.29620 | 109.13479 | 31969 ft | 482 kts | 233° |
| 2026-04-26 12:14 | 33.25198 | 109.07445 | 31970 ft | 483 kts | 232° |
| 2026-04-26 12:14 | 33.20756 | 109.01400 | 31968 ft | 485 kts | 232° |
| 2026-04-26 12:15 | 33.16308 | 108.95361 | 31967 ft | 484 kts | 232° |
| 2026-04-26 12:15 | 33.11856 | 108.89312 | 31959 ft | 484 kts | 232° |
| 2026-04-26 12:16 | 33.07407 | 108.83280 | 31969 ft | 485 kts | 232° |
| 2026-04-26 12:16 | 33.02946 | 108.77247 | 31965 ft | 485 kts | 232° |
| 2026-04-26 12:17 | 32.98484 | 108.71216 | 31956 ft | 485 kts | 232° |
| 2026-04-26 12:17 | 32.94046 | 108.65230 | 31947 ft | 486 kts | 232° |
| 2026-04-26 12:18 | 32.89571 | 108.59205 | 31941 ft | 486 kts | 232° |
| 2026-04-26 12:18 | 32.85092 | 108.53191 | 31937 ft | 486 kts | 232° |
| 2026-04-26 12:19 | 32.80611 | 108.47181 | 31933 ft | 486 kts | 231° |
| 2026-04-26 12:19 | 32.76120 | 108.41167 | 31941 ft | 486 kts | 231° |
| 2026-04-26 12:20 | 32.71625 | 108.35156 | 31941 ft | 486 kts | 231° |
| 2026-04-26 12:20 | 32.67129 | 108.29154 | 31948 ft | 487 kts | 231° |
| 2026-04-26 12:21 | 32.62616 | 108.23137 | 31958 ft | 488 kts | 231° |
| 2026-04-26 12:21 | 32.58092 | 108.17117 | 31962 ft | 489 kts | 231° |
| 2026-04-26 12:22 | 32.53555 | 108.11090 | 31962 ft | 490 kts | 231° |
| 2026-04-26 12:22 | 32.49005 | 108.05058 | 31969 ft | 491 kts | 231° |
| 2026-04-26 12:23 | 32.44476 | 107.99060 | 31973 ft | 491 kts | 231° |
| 2026-04-26 12:23 | 32.40681 | 107.94045 | 31973 ft | 492 kts | 230° |
| 2026-04-26 12:24 | 32.36109 | 107.88008 | 31977 ft | 493 kts | 230° |
| 2026-04-26 12:24 | 32.31524 | 107.81963 | 31977 ft | 494 kts | 230° |
| 2026-04-26 12:25 | 32.24620 | 107.72882 | 31975 ft | 495 kts | 230° |
| 2026-04-26 12:25 | 32.19970 | 107.66867 | 31971 ft | 497 kts | 227° |
| 2026-04-26 12:26 | 32.14645 | 107.61629 | 31980 ft | 499 kts | 220° |
| 2026-04-26 12:26 | 32.09093 | 107.56688 | 31976 ft | 500 kts | 219° |
| 2026-04-26 12:27 | 32.03506 | 107.51787 | 31976 ft | 500 kts | 219° |
| 2026-04-26 12:27 | 31.97937 | 107.46890 | 31973 ft | 500 kts | 219° |
| 2026-04-26 12:28 | 31.92397 | 107.42007 | 31973 ft | 500 kts | 219° |
| 2026-04-26 12:28 | 31.86831 | 107.37105 | 31968 ft | 500 kts | 219° |
| 2026-04-26 12:29 | 31.81249 | 107.32200 | 31970 ft | 501 kts | 219° |
| 2026-04-26 12:29 | 31.75183 | 107.28123 | 31966 ft | 504 kts | 207° |
| 2026-04-26 12:30 | 31.71997 | 107.26400 | 31967 ft | 505 kts | 206° |
| 2026-04-26 12:30 | 31.65558 | 107.23080 | 31965 ft | 506 kts | 206° |
| 2026-04-26 12:31 | 31.55873 | 107.18140 | 31968 ft | 506 kts | 206° |
| 2026-04-26 12:31 | 31.49414 | 107.14823 | 31961 ft | 507 kts | 206° |
| 2026-04-26 12:32 | 31.42938 | 107.11493 | 31961 ft | 508 kts | 206° |
| 2026-04-26 12:33 | 31.33265 | 107.06528 | 31957 ft | 509 kts | 206° |
| 2026-04-26 12:33 | 31.26772 | 107.03202 | 31956 ft | 509 kts | 206° |
| 2026-04-26 12:34 | 31.20281 | 106.99883 | 31958 ft | 509 kts | 206° |
| 2026-04-26 12:34 | 31.13783 | 106.96566 | 31953 ft | 509 kts | 206° |
| 2026-04-26 12:35 | 31.07290 | 106.93257 | 31949 ft | 509 kts | 206° |
| 2026-04-26 12:35 | 31.00797 | 106.89951 | 31946 ft | 509 kts | 206° |
| 2026-04-26 12:36 | 30.94307 | 106.86652 | 31952 ft | 509 kts | 206° |
| 2026-04-26 12:36 | 30.87817 | 106.83358 | 31941 ft | 508 kts | 206° |
| 2026-04-26 12:37 | 30.81325 | 106.80067 | 31934 ft | 508 kts | 206° |
| 2026-04-26 12:37 | 30.74843 | 106.76787 | 31932 ft | 508 kts | 206° |
| 2026-04-26 12:38 | 30.68361 | 106.73511 | 31935 ft | 508 kts | 206° |
| 2026-04-26 12:38 | 30.61866 | 106.70255 | 31929 ft | 509 kts | 204° |
| 2026-04-26 12:39 | 30.55171 | 106.67656 | 31923 ft | 511 kts | 200° |
| 2026-04-26 12:39 | 30.48375 | 106.65232 | 31924 ft | 511 kts | 199° |
| 2026-04-26 12:40 | 30.41559 | 106.62836 | 31923 ft | 511 kts | 199° |
| 2026-04-26 12:40 | 30.34752 | 106.60434 | 31917 ft | 512 kts | 200° |
| 2026-04-26 12:41 | 30.27930 | 106.58022 | 31912 ft | 512 kts | 200° |
| 2026-04-26 12:41 | 30.21109 | 106.55610 | 31908 ft | 512 kts | 200° |
| 2026-04-26 12:42 | 30.14110 | 106.53972 | 31907 ft | 518 kts | 186° |
| 2026-04-26 12:42 | 30.06877 | 106.53774 | 31904 ft | 521 kts | 183° |
| 2026-04-26 12:43 | 29.99624 | 106.53819 | 31904 ft | 521 kts | 183° |
| 2026-04-26 12:43 | 29.92366 | 106.53874 | 31900 ft | 522 kts | 183° |
| 2026-04-26 12:44 | 29.85150 | 106.53898 | 31902 ft | 522 kts | 183° |
| 2026-04-26 12:44 | 29.77885 | 106.53908 | 31901 ft | 522 kts | 183° |
| 2026-04-26 12:45 | 29.70602 | 106.53915 | 31901 ft | 522 kts | 183° |
| 2026-04-26 12:45 | 29.63335 | 106.53923 | 31900 ft | 523 kts | 183° |
| 2026-04-26 12:46 | 29.56053 | 106.53932 | 31893 ft | 523 kts | 183° |
| 2026-04-26 12:46 | 29.48776 | 106.53941 | 31906 ft | 523 kts | 183° |
| 2026-04-26 12:47 | 29.41494 | 106.53950 | 31896 ft | 524 kts | 183° |
| 2026-04-26 12:47 | 29.34205 | 106.53958 | 31891 ft | 524 kts | 182° |
| 2026-04-26 12:48 | 29.26908 | 106.53968 | 31887 ft | 524 kts | 182° |
| 2026-04-26 12:48 | 29.19657 | 106.53976 | 31896 ft | 525 kts | 182° |
| 2026-04-26 12:49 | 29.12353 | 106.53986 | 31895 ft | 525 kts | 182° |
| 2026-04-26 12:49 | 29.05056 | 106.53995 | 31898 ft | 524 kts | 182° |
| 2026-04-26 12:50 | 28.97761 | 106.54005 | 31902 ft | 524 kts | 182° |
| 2026-04-26 12:50 | 28.90462 | 106.54011 | 31903 ft | 524 kts | 182° |
| 2026-04-26 12:51 | 28.83172 | 106.54014 | 31917 ft | 524 kts | 182° |
| 2026-04-26 12:51 | 28.75883 | 106.54022 | 31919 ft | 523 kts | 182° |
| 2026-04-26 12:52 | 28.68606 | 106.54035 | 31926 ft | 523 kts | 182° |
| 2026-04-26 12:52 | 28.61382 | 106.54044 | 31935 ft | 522 kts | 182° |
| 2026-04-26 12:53 | 28.54106 | 106.54045 | 31941 ft | 523 kts | 182° |
| 2026-04-26 12:53 | 28.46820 | 106.54049 | 31952 ft | 523 kts | 182° |
| 2026-04-26 12:54 | 28.39533 | 106.54057 | 31954 ft | 523 kts | 182° |
| 2026-04-26 12:54 | 28.32253 | 106.54063 | 31963 ft | 523 kts | 182° |
| 2026-04-26 12:55 | 28.24967 | 106.54071 | 31962 ft | 523 kts | 182° |
| 2026-04-26 12:55 | 28.17768 | 106.53290 | 31965 ft | 519 kts | 196° |
| 2026-04-26 12:56 | 28.11262 | 106.50063 | 31968 ft | 512 kts | 216° |
| 2026-04-26 12:56 | 28.06185 | 106.44524 | 31956 ft | 507 kts | 236° |
| 2026-04-26 12:57 | 28.03127 | 106.37397 | 31957 ft | 505 kts | 255° |
| 2026-04-26 12:57 | 28.01938 | 106.29585 | 31951 ft | 505 kts | 258° |
| 2026-04-26 12:58 | 27.98709 | 106.18245 | 31949 ft | 505 kts | 250° |
| 2026-04-26 12:58 | 27.96233 | 106.10798 | 31949 ft | 506 kts | 250° |
| 2026-04-26 12:59 | 27.93754 | 106.03351 | 31946 ft | 506 kts | 250° |
| 2026-04-26 12:59 | 27.91293 | 105.95895 | 31947 ft | 506 kts | 250° |
| 2026-04-26 13:00 | 27.88836 | 105.88450 | 31943 ft | 506 kts | 250° |
| 2026-04-26 13:00 | 27.86372 | 105.81005 | 31950 ft | 506 kts | 250° |
| 2026-04-26 13:01 | 27.83902 | 105.73563 | 31955 ft | 506 kts | 250° |
| 2026-04-26 13:01 | 27.81444 | 105.66172 | 31952 ft | 506 kts | 250° |
| 2026-04-26 13:02 | 27.78965 | 105.58730 | 31952 ft | 506 kts | 250° |
| 2026-04-26 13:02 | 27.76481 | 105.51287 | 31958 ft | 507 kts | 250° |
| 2026-04-26 13:03 | 27.73986 | 105.43839 | 31960 ft | 507 kts | 250° |
| 2026-04-26 13:03 | 27.71485 | 105.36387 | 31962 ft | 508 kts | 250° |
| 2026-04-26 13:04 | 27.68980 | 105.28933 | 31961 ft | 508 kts | 250° |
| 2026-04-26 13:04 | 27.66467 | 105.21470 | 31960 ft | 509 kts | 250° |
| 2026-04-26 13:05 | 27.63807 | 105.14078 | 31964 ft | 510 kts | 244° |
| 2026-04-26 13:05 | 27.59720 | 105.07595 | 31970 ft | 512 kts | 227° |
| 2026-04-26 13:06 | 27.54684 | 105.01907 | 31968 ft | 513 kts | 225° |
| 2026-04-26 13:06 | 27.49511 | 104.96348 | 31968 ft | 514 kts | 225° |
| 2026-04-26 13:07 | 27.44345 | 104.90791 | 31973 ft | 514 kts | 225° |
| 2026-04-26 13:07 | 27.39191 | 104.85206 | 31985 ft | 514 kts | 225° |
| 2026-04-26 13:08 | 27.34046 | 104.79617 | 31994 ft | 514 kts | 225° |
| 2026-04-26 13:08 | 27.28896 | 104.74030 | 32005 ft | 514 kts | 225° |
| 2026-04-26 13:09 | 27.23748 | 104.68453 | 32011 ft | 514 kts | 225° |
| 2026-04-26 13:09 | 27.18580 | 104.62898 | 32021 ft | 514 kts | 225° |
| 2026-04-26 13:10 | 27.13398 | 104.57363 | 32028 ft | 514 kts | 224° |
| 2026-04-26 13:10 | 27.09095 | 104.52771 | 32021 ft | 514 kts | 224° |
| 2026-04-26 13:11 | 27.03070 | 104.46344 | 32025 ft | 514 kts | 224° |
| 2026-04-26 13:11 | 26.97891 | 104.40823 | 32031 ft | 514 kts | 224° |
| 2026-04-26 13:12 | 26.93538 | 104.36187 | 32032 ft | 514 kts | 224° |
| 2026-04-26 13:12 | 26.90948 | 104.33432 | 31929 ft | 513 kts | 224° |
| 2026-04-26 13:12 | 26.88393 | 104.30715 | 31568 ft | 513 kts | 225° |
| 2026-04-26 13:13 | 26.85768 | 104.27927 | 31083 ft | 515 kts | 224° |
| 2026-04-26 13:13 | 26.83083 | 104.25256 | 30631 ft | 517 kts | 221° |
| 2026-04-26 13:13 | 26.80332 | 104.22735 | 30178 ft | 519 kts | 220° |
| 2026-04-26 13:13 | 26.77498 | 104.20141 | 29665 ft | 519 kts | 220° |
| 2026-04-26 13:14 | 26.74754 | 104.17609 | 29147 ft | 517 kts | 221° |
| 2026-04-26 13:14 | 26.71998 | 104.15053 | 28613 ft | 513 kts | 221° |
| 2026-04-26 13:14 | 26.69275 | 104.12522 | 28098 ft | 503 kts | 221° |
| 2026-04-26 13:14 | 26.66617 | 104.10048 | 27583 ft | 492 kts | 221° |
| 2026-04-26 13:15 | 26.64012 | 104.07623 | 27102 ft | 483 kts | 221° |
| 2026-04-26 13:15 | 26.61451 | 104.05237 | 26616 ft | 477 kts | 221° |
| 2026-04-26 13:15 | 26.58915 | 104.02875 | 26130 ft | 474 kts | 221° |
| 2026-04-26 13:15 | 26.56386 | 104.00521 | 25659 ft | 471 kts | 221° |
| 2026-04-26 13:16 | 26.53877 | 103.98186 | 25196 ft | 468 kts | 221° |
| 2026-04-26 13:16 | 26.51388 | 103.95871 | 24745 ft | 465 kts | 221° |
| 2026-04-26 13:16 | 26.48910 | 103.93569 | 24301 ft | 461 kts | 221° |
| 2026-04-26 13:16 | 26.46449 | 103.91283 | 23862 ft | 458 kts | 221° |
| 2026-04-26 13:17 | 26.41578 | 103.86764 | 22879 ft | 451 kts | 221° |
| 2026-04-26 13:17 | 26.39174 | 103.84536 | 22373 ft | 448 kts | 221° |
| 2026-04-26 13:18 | 26.34422 | 103.80134 | 21381 ft | 440 kts | 221° |
| 2026-04-26 13:18 | 26.32088 | 103.77974 | 20894 ft | 432 kts | 221° |
| 2026-04-26 13:18 | 26.27556 | 103.73781 | 19949 ft | 415 kts | 221° |
| 2026-04-26 13:19 | 26.25348 | 103.71742 | 19484 ft | 408 kts | 221° |
| 2026-04-26 13:19 | 26.23181 | 103.69741 | 19047 ft | 401 kts | 221° |
| 2026-04-26 13:19 | 26.21050 | 103.67773 | 18584 ft | 395 kts | 221° |
| 2026-04-26 13:19 | 26.18936 | 103.65847 | 18129 ft | 391 kts | 220° |
| 2026-04-26 13:20 | 26.16660 | 103.64195 | 17675 ft | 389 kts | 211° |
| 2026-04-26 13:20 | 26.14295 | 103.62812 | 17301 ft | 388 kts | 209° |
| 2026-04-26 13:20 | 26.11896 | 103.61450 | 16921 ft | 387 kts | 210° |
| 2026-04-26 13:20 | 26.09508 | 103.60091 | 16549 ft | 384 kts | 209° |
| 2026-04-26 13:21 | 26.07125 | 103.58733 | 16190 ft | 382 kts | 210° |
| 2026-04-26 13:21 | 26.05558 | 103.57839 | 15949 ft | 381 kts | 210° |
| 2026-04-26 13:21 | 26.02453 | 103.56067 | 15463 ft | 369 kts | 210° |
| 2026-04-26 13:21 | 26.00186 | 103.54773 | 15112 ft | 361 kts | 210° |
| 2026-04-26 13:22 | 25.97980 | 103.53513 | 14772 ft | 353 kts | 210° |
| 2026-04-26 13:22 | 25.95817 | 103.52280 | 14422 ft | 346 kts | 210° |
| 2026-04-26 13:22 | 25.93693 | 103.51070 | 14075 ft | 339 kts | 210° |
| 2026-04-26 13:22 | 25.91618 | 103.49889 | 13725 ft | 331 kts | 210° |
| 2026-04-26 13:23 | 25.89587 | 103.48733 | 13345 ft | 325 kts | 210° |
| 2026-04-26 13:23 | 25.87593 | 103.47600 | 12971 ft | 319 kts | 210° |
| 2026-04-26 13:23 | 25.85632 | 103.46481 | 12598 ft | 315 kts | 210° |
| 2026-04-26 13:23 | 25.83735 | 103.45391 | 12311 ft | 306 kts | 210° |
| 2026-04-26 13:24 | 25.81872 | 103.44328 | 12086 ft | 297 kts | 210° |
| 2026-04-26 13:24 | 25.80049 | 103.43292 | 11803 ft | 292 kts | 210° |
| 2026-04-26 13:24 | 25.78246 | 103.42269 | 11733 ft | 290 kts | 210° |
| 2026-04-26 13:24 | 25.76450 | 103.41247 | 11714 ft | 290 kts | 210° |
| 2026-04-26 13:25 | 25.74650 | 103.40221 | 11732 ft | 291 kts | 210° |
| 2026-04-26 13:25 | 25.72852 | 103.39199 | 11718 ft | 287 kts | 210° |
| 2026-04-26 13:25 | 25.71129 | 103.38221 | 11719 ft | 269 kts | 210° |
| 2026-04-26 13:25 | 25.69510 | 103.37307 | 11729 ft | 254 kts | 210° |
| 2026-04-26 13:26 | 25.67975 | 103.36440 | 11720 ft | 240 kts | 211° |
| 2026-04-26 13:26 | 25.66523 | 103.35617 | 11748 ft | 231 kts | 211° |
| 2026-04-26 13:26 | 25.65105 | 103.34810 | 11754 ft | 228 kts | 210° |
| 2026-04-26 13:26 | 25.63690 | 103.34001 | 11742 ft | 229 kts | 210° |
| 2026-04-26 13:27 | 25.62312 | 103.33221 | 11700 ft | 214 kts | 211° |
| 2026-04-26 13:27 | 25.61014 | 103.32489 | 11536 ft | 206 kts | 211° |
| 2026-04-26 13:27 | 25.59759 | 103.31776 | 11232 ft | 206 kts | 211° |
| 2026-04-26 13:27 | 25.58464 | 103.31040 | 10912 ft | 206 kts | 211° |
| 2026-04-26 13:28 | 25.57210 | 103.30329 | 10767 ft | 204 kts | 211° |
| 2026-04-26 13:28 | 25.55944 | 103.29612 | 10750 ft | 204 kts | 211° |
| 2026-04-26 13:28 | 25.54685 | 103.28898 | 10745 ft | 203 kts | 210° |
| 2026-04-26 13:28 | 25.53427 | 103.28188 | 10750 ft | 202 kts | 210° |
| 2026-04-26 13:29 | 25.52178 | 103.27481 | 10749 ft | 202 kts | 210° |
| 2026-04-26 13:29 | 25.51334 | 103.27003 | 10745 ft | 202 kts | 210° |
| 2026-04-26 13:29 | 25.49678 | 103.26065 | 10749 ft | 202 kts | 211° |
| 2026-04-26 13:29 | 25.48492 | 103.25242 | 10750 ft | 201 kts | 220° |
| 2026-04-26 13:30 | 25.47396 | 103.24285 | 10743 ft | 200 kts | 222° |
| 2026-04-26 13:30 | 25.46319 | 103.23309 | 10752 ft | 200 kts | 222° |
| 2026-04-26 13:30 | 25.45227 | 103.22354 | 10756 ft | 201 kts | 218° |
| 2026-04-26 13:30 | 25.44129 | 103.21409 | 10759 ft | 199 kts | 224° |
| 2026-04-26 13:31 | 25.43060 | 103.20437 | 10751 ft | 200 kts | 221° |
| 2026-04-26 13:31 | 25.41963 | 103.19478 | 10757 ft | 201 kts | 220° |
| 2026-04-26 13:31 | 25.40861 | 103.18515 | 10762 ft | 201 kts | 221° |
| 2026-04-26 13:31 | 25.39766 | 103.17558 | 10766 ft | 200 kts | 221° |
| 2026-04-26 13:32 | 25.38677 | 103.16601 | 10768 ft | 200 kts | 221° |
| 2026-04-26 13:32 | 25.37589 | 103.15645 | 10766 ft | 200 kts | 221° |
| 2026-04-26 13:32 | 25.36492 | 103.14690 | 10780 ft | 201 kts | 221° |
| 2026-04-26 13:32 | 25.35397 | 103.13726 | 10781 ft | 202 kts | 221° |
| 2026-04-26 13:33 | 25.34316 | 103.12772 | 10786 ft | 201 kts | 221° |
| 2026-04-26 13:33 | 25.33210 | 103.11802 | 10790 ft | 200 kts | 221° |
| 2026-04-26 13:33 | 25.32132 | 103.10859 | 10797 ft | 200 kts | 221° |
| 2026-04-26 13:33 | 25.31038 | 103.09900 | 10805 ft | 201 kts | 221° |
| 2026-04-26 13:34 | 25.29942 | 103.08939 | 10809 ft | 201 kts | 221° |
| 2026-04-26 13:34 | 25.28842 | 103.07975 | 10791 ft | 202 kts | 221° |
| 2026-04-26 13:34 | 25.27745 | 103.07015 | 10615 ft | 200 kts | 221° |
| 2026-04-26 13:34 | 25.27009 | 103.06370 | 10455 ft | 199 kts | 221° |
| 2026-04-26 13:35 | 25.25579 | 103.05117 | 10106 ft | 197 kts | 221° |
| 2026-04-26 13:35 | 25.24508 | 103.04179 | 9839 ft | 196 kts | 221° |
| 2026-04-26 13:35 | 25.23445 | 103.03249 | 9565 ft | 193 kts | 220° |
| 2026-04-26 13:35 | 25.22407 | 103.02341 | 9306 ft | 185 kts | 220° |
| 2026-04-26 13:36 | 25.21429 | 103.01485 | 9086 ft | 174 kts | 220° |
| 2026-04-26 13:36 | 25.20512 | 103.00682 | 8836 ft | 162 kts | 220° |
| 2026-04-26 13:36 | 25.19661 | 102.99938 | 8649 ft | 149 kts | 220° |
| 2026-04-26 13:36 | 25.18873 | 102.99249 | 8460 ft | 140 kts | 220° |
| 2026-04-26 13:37 | 25.18122 | 102.98591 | 8299 ft | 137 kts | 220° |
| 2026-04-26 13:37 | 25.17380 | 102.97943 | 8115 ft | 135 kts | 220° |
| 2026-04-26 13:37 | 25.16645 | 102.97299 | 7951 ft | 135 kts | 219° |
| 2026-04-26 13:37 | 25.15906 | 102.96654 | 7758 ft | 136 kts | 219° |
| 2026-04-26 13:38 | 25.15170 | 102.96011 | 7581 ft | 139 kts | 220° |
| 2026-04-26 13:38 | 25.14393 | 102.95330 | 7371 ft | 143 kts | 219° |
| 2026-04-26 13:38 | 25.13613 | 102.94647 | 7124 ft | 144 kts | 218° |
| 2026-04-26 13:38 | 25.12828 | 102.93957 | 6932 ft | 143 kts | 219° |
| 2026-04-26 13:39 | 25.12115 | 102.93337 | 6916 ft | 107 kts | 218° |
| 2026-04-26 13:39 | 25.11750 | 102.93023 | 6913 ft | 30 kts | 218° |
| 2026-04-26 13:39 | 25.11618 | 102.92915 | 6925 ft | 23 kts | 214° |
| 2026-04-26 13:39 | 25.11487 | 102.92885 | 6924 ft | 19 kts | 193° |
| 2026-04-26 13:40 | 25.11360 | 102.92854 | 6918 ft | 19 kts | 192° |
| 2026-04-26 13:40 | 25.11229 | 102.92822 | 6916 ft | 20 kts | 192° |
| 2026-04-26 13:40 | 25.11099 | 102.92790 | 6923 ft | 17 kts | 192° |
| 2026-04-26 13:40 | 25.11061 | 102.92781 | 6919 ft | 0 kts | 192° |